Belgrade, MO

9:04 AM CST on March 02, 2015 (GMT -0600)
Spirit Of Saint Louis | Change Station
CLOSE
Current Station
Airport
Location: Spirit of St Louis,
Elevation: 463 ft
Nearby Weather Stations

Elev 463 ft 38.66 °N, 90.66 °W | Updated 10 minutes ago

Partly Cloudy
Partly Cloudy
18 °F
Feels Like 18 °F
N
0
Wind Variable Wind from North

Today
High -- | Low -- °F
--% Chance of Precip.
Yesterday
High -- | Low -- °F
Precip. -- in
6:33 AM 5:57 PM
Waxing Gibbous, 91% visible
Pressure 30.60 in
Visibility 7.0 miles
Clouds Mostly Cloudy 25000 ft
Dew Point 16 °F
Humidity 92%
Rainfall 0.00 in
Snow Depth Not available.
UV 1 out of 12
Pollen 2.10 out of 12
Air Quality Not available.
Flu Activity Not available.
METAR KSUS 021454Z 00000KT 7SM BKN250 M08/M09 A3055 RMK AO2 SLP361 T10781089 53004 $

More Conditions Fewer Conditions

Pressure 30.60 in
Visibility 7.0 miles
Clouds Mostly Cloudy 25000 ft
Dew Point 16 °F
Humidity 92%
Rainfall 0.00 in
Snow Depth Not available.
UV 1 out of 12
Pollen 2.10 out of 12
Air Quality Not available.
Flu Activity Not available.
METAR KSUS 021454Z 00000KT 7SM BKN250 M08/M09 A3055 RMK AO2 SLP361 T10781089 53004 $

More Conditions Fewer Conditions

10-Day Weather Forecast

Almanac

Astronomy

Mar. 02, 2015 Rise Set
Actual Time
Civil Twilight
Nautical Twilight
Astronomical Twilight
Moon
Length of Visible Light
Length of Day
Tomorrow will be .
, % of the Moon is Illuminated

Today's Extremes

State Highs State Lows

Community

WunderPhotos

Upload Photos

1,801,798 photos uploaded!

WunderBlogs® & News

Nearby

Air Quality

  Air Quality AQ Index Pollutant
Not available.

Snow Depth

Station Depth Elevation

Earthquake Activity

City Distance Mag. Time & Date
Minimum magnitude displayed is 2.5.

Coastal Water Temperatures

Place Temperature

Nearby Weather Stations